createdAt,value
2022-09-23T00:01:49.563Z,70.78
2022-09-23T00:04:52.752Z,70.59
2022-09-23T00:07:56.112Z,70.67
2022-09-23T00:11:12.021Z,70.71
2022-09-23T00:14:15.013Z,70.87
2022-09-23T00:17:17.839Z,71.16
2022-09-23T00:20:20.850Z,70.86
2022-09-23T00:23:23.844Z,71.00
2022-09-23T00:26:27.653Z,71.05
2022-09-23T00:29:31.727Z,71.10
2022-09-23T00:32:36.046Z,70.84
2022-09-23T00:35:38.910Z,71.05
2022-09-23T00:38:42.529Z,70.95
2022-09-23T00:41:45.399Z,70.93
2022-09-23T00:44:51.414Z,70.96
2022-09-23T00:47:58.328Z,70.94
2022-09-23T00:51:01.868Z,70.97
2022-09-23T00:54:06.467Z,71.04
2022-09-23T00:57:11.238Z,70.85
2022-09-23T01:00:14.257Z,71.00
2022-09-23T01:03:18.586Z,70.97
2022-09-23T01:06:21.650Z,71.07
2022-09-23T01:09:25.339Z,70.89
2022-09-23T01:12:44.873Z,70.99
2022-09-23T01:15:58.421Z,71.19
2022-09-23T01:19:34.391Z,71.03
2022-09-23T01:22:39.951Z,70.89
2022-09-23T01:26:04.445Z,71.12
2022-09-23T01:29:23.944Z,71.15
2022-09-23T01:33:04.737Z,71.14
2022-09-23T01:36:19.143Z,71.23
2022-09-23T01:39:42.905Z,71.08
2022-09-23T01:42:52.964Z,71.05
2022-09-23T01:46:00.229Z,71.14
2022-09-23T01:49:10.801Z,71.13
2022-09-23T01:52:22.790Z,71.07
2022-09-23T01:55:34.121Z,71.15
2022-09-23T01:58:46.529Z,71.08
2022-09-23T02:01:57.053Z,71.02
2022-09-23T02:05:38.391Z,70.93
2022-09-23T02:08:52.237Z,70.97
2022-09-23T02:12:05.800Z,71.08
2022-09-23T02:15:19.284Z,70.98
2022-09-23T02:18:27.369Z,70.90
2022-09-23T02:21:35.692Z,71.01
2022-09-23T02:24:39.792Z,71.03
2022-09-23T02:27:51.799Z,70.81
2022-09-23T02:31:07.788Z,70.96
2022-09-23T02:34:25.866Z,70.68
2022-09-23T02:38:04.103Z,70.87
2022-09-23T02:41:21.784Z,70.69
2022-09-23T02:44:25.516Z,70.67
2022-09-23T02:47:31.672Z,70.70
2022-09-23T02:50:34.859Z,70.47
2022-09-23T02:53:38.358Z,70.54
2022-09-23T02:56:42.363Z,70.34
2022-09-23T02:59:46.796Z,70.36
2022-09-23T03:03:15.780Z,70.34
2022-09-23T03:06:32.890Z,70.25
2022-09-23T03:09:38.664Z,70.22
2022-09-23T03:12:53.053Z,70.06
2022-09-23T03:16:01.735Z,69.99
2022-09-23T03:19:32.990Z,69.94
2022-09-23T03:22:44.671Z,70.12
2022-09-23T03:25:50.401Z,69.95
2022-09-23T03:28:53.779Z,70.03
2022-09-23T03:31:58.102Z,70.08
2022-09-23T03:35:03.966Z,70.16
2022-09-23T03:38:16.910Z,70.20
2022-09-23T03:41:30.836Z,70.11
2022-09-23T03:44:39.738Z,70.15
2022-09-23T03:47:42.620Z,70.32
2022-09-23T03:50:45.507Z,70.24
2022-09-23T03:53:48.765Z,70.17
2022-09-23T03:56:52.080Z,70.23
2022-09-23T03:59:55.108Z,70.19
2022-09-23T04:02:57.983Z,70.08
2022-09-23T04:06:00.992Z,70.12
2022-09-23T04:09:04.037Z,70.08
2022-09-23T04:12:07.590Z,70.00
2022-09-23T04:15:10.776Z,69.89
2022-09-23T04:18:13.852Z,69.85
2022-09-23T04:21:16.865Z,69.82
2022-09-23T04:24:19.885Z,69.90
2022-09-23T04:27:22.772Z,69.64
2022-09-23T04:30:25.659Z,69.60
2022-09-23T04:33:28.613Z,69.61
2022-09-23T04:36:31.666Z,69.58
2022-09-23T04:39:34.869Z,69.58
2022-09-23T04:42:37.759Z,69.59
2022-09-23T04:45:40.759Z,69.51
2022-09-23T04:48:44.555Z,69.46
2022-09-23T04:51:47.660Z,69.46
2022-09-23T04:54:50.573Z,69.54
2022-09-23T04:57:53.514Z,69.60
2022-09-23T05:01:00.575Z,69.68
2022-09-23T05:04:10.704Z,69.79
2022-09-23T05:07:13.631Z,69.81
2022-09-23T05:10:16.713Z,69.87
2022-09-23T05:13:19.600Z,69.91
2022-09-23T05:16:24.166Z,69.91
2022-09-23T05:19:27.204Z,69.84
2022-09-23T05:22:30.297Z,70.04
2022-09-23T05:25:38.099Z,70.01
2022-09-23T05:28:41.362Z,69.99
2022-09-23T05:31:44.332Z,69.88
2022-09-23T05:34:47.336Z,69.87
2022-09-23T05:37:50.241Z,69.95
2022-09-23T05:41:00.971Z,70.18
2022-09-23T05:44:04.280Z,70.16
2022-09-23T05:47:07.492Z,70.24
2022-09-23T05:50:10.840Z,70.36
2022-09-23T05:53:13.794Z,70.33
2022-09-23T05:56:20.685Z,70.45
2022-09-23T05:59:24.001Z,70.55
2022-09-23T06:02:27.615Z,70.59
2022-09-23T06:05:31.164Z,70.59
2022-09-23T06:08:34.695Z,70.82
2022-09-23T06:11:37.800Z,70.83
2022-09-23T06:14:40.771Z,70.83
2022-09-23T06:17:44.007Z,70.82
2022-09-23T06:20:47.017Z,70.89
2022-09-23T06:23:52.943Z,70.75
2022-09-23T06:27:01.068Z,70.86
2022-09-23T06:30:05.371Z,70.94
2022-09-23T06:33:08.511Z,71.04
2022-09-23T06:36:17.703Z,71.12
2022-09-23T06:39:27.848Z,71.10
2022-09-23T06:42:30.829Z,70.98
2022-09-23T06:45:34.332Z,71.23
2022-09-23T06:48:37.281Z,71.26
2022-09-23T06:51:41.662Z,71.16
2022-09-23T06:54:50.725Z,71.24
2022-09-23T06:57:55.260Z,71.23
2022-09-23T07:01:07.389Z,71.35
2022-09-23T07:04:10.894Z,71.42
2022-09-23T07:07:16.496Z,71.57
2022-09-23T07:10:19.548Z,71.50
2022-09-23T07:13:23.858Z,71.54
2022-09-23T07:16:26.983Z,71.61
2022-09-23T07:19:30.097Z,71.72
2022-09-23T07:22:33.109Z,71.73
2022-09-23T07:25:36.088Z,71.63
2022-09-23T07:28:39.530Z,71.77
2022-09-23T07:31:42.732Z,71.72
2022-09-23T07:34:47.365Z,71.82
2022-09-23T07:37:50.774Z,71.90
2022-09-23T07:40:53.851Z,71.95
2022-09-23T07:44:01.762Z,71.89
2022-09-23T07:47:05.192Z,72.00
2022-09-23T07:50:11.644Z,72.00
2022-09-23T07:53:15.696Z,71.90
2022-09-23T07:56:20.367Z,72.14
2022-09-23T07:59:23.567Z,72.23
2022-09-23T08:02:26.960Z,72.28
2022-09-23T08:05:30.084Z,72.49
2022-09-23T08:08:33.191Z,72.47
2022-09-23T08:11:39.583Z,72.52
2022-09-23T08:14:42.825Z,72.44
2022-09-23T08:17:46.247Z,72.43
2022-09-23T08:20:49.609Z,72.46
2022-09-23T08:23:52.609Z,72.42
2022-09-23T08:26:55.759Z,72.34
2022-09-23T08:29:58.752Z,72.40
2022-09-23T08:33:01.791Z,72.48
2022-09-23T08:36:05.133Z,72.45
2022-09-23T08:39:08.410Z,72.19
2022-09-23T08:42:20.685Z,72.06
2022-09-23T08:45:26.983Z,72.36
2022-09-23T08:48:38.620Z,72.01
2022-09-23T08:51:47.040Z,72.12
2022-09-23T08:54:55.127Z,72.31
2022-09-23T08:58:35.972Z,72.02
2022-09-23T09:01:42.222Z,72.06
2022-09-23T09:04:51.266Z,71.85
2022-09-23T09:07:57.682Z,71.55
2022-09-23T09:11:01.268Z,71.25
2022-09-23T09:14:26.149Z,71.04
2022-09-23T09:17:38.427Z,71.12
2022-09-23T09:21:02.867Z,70.99
2022-09-23T09:24:17.562Z,70.78
2022-09-23T09:27:20.727Z,70.64
2022-09-23T09:30:25.617Z,70.07
2022-09-23T09:33:40.675Z,69.92
2022-09-23T09:36:50.223Z,69.62
2022-09-23T09:39:53.260Z,69.41
2022-09-23T09:42:56.627Z,69.75
2022-09-23T09:46:46.148Z,69.50
2022-09-23T09:49:59.117Z,68.63
2022-09-23T09:53:35.734Z,68.29
2022-09-23T09:56:40.059Z,68.01
2022-09-23T09:59:44.193Z,67.85
2022-09-23T10:02:52.634Z,67.63
2022-09-23T10:05:57.776Z,67.33
2022-09-23T10:09:13.855Z,66.91
2022-09-23T10:12:19.933Z,66.92
2022-09-23T10:15:33.422Z,66.60
2022-09-23T10:18:51.063Z,66.03
2022-09-23T10:21:57.060Z,65.75
2022-09-23T10:25:04.053Z,65.48
2022-09-23T10:29:01.132Z,63.92
2022-09-23T10:32:28.456Z,62.87
2022-09-23T10:35:33.585Z,62.33
2022-09-23T10:38:36.707Z,61.93
2022-09-23T10:42:07.351Z,61.78
2022-09-23T10:45:46.193Z,60.70
2022-09-23T10:48:59.292Z,60.19
2022-09-23T10:52:18.428Z,60.25
2022-09-23T10:55:45.580Z,59.62
2022-09-23T10:59:03.656Z,59.06
2022-09-23T11:02:22.165Z,59.05
2022-09-23T11:05:36.200Z,58.56
2022-09-23T11:08:54.069Z,58.14
2022-09-23T11:11:57.108Z,58.19
2022-09-23T11:15:37.743Z,58.29
2022-09-23T11:19:04.193Z,58.26
2022-09-23T11:22:38.068Z,58.23
2022-09-23T11:26:02.904Z,58.44
2022-09-23T11:29:43.588Z,58.30
2022-09-23T11:32:52.671Z,58.36
2022-09-23T11:36:12.734Z,58.75
2022-09-23T11:39:49.390Z,58.84
2022-09-23T11:43:01.740Z,58.15
2022-09-23T11:46:42.254Z,57.97
2022-09-23T11:49:52.237Z,57.93
2022-09-23T11:53:03.100Z,57.93
2022-09-23T11:56:23.414Z,57.83
2022-09-23T11:59:41.175Z,57.60
2022-09-23T12:03:08.207Z,56.79
2022-09-23T12:06:20.445Z,56.43
2022-09-23T12:09:57.288Z,56.36
2022-09-23T12:13:10.309Z,55.81
2022-09-23T12:16:20.218Z,55.38
2022-09-23T12:19:57.321Z,54.76
2022-09-23T12:23:18.576Z,54.48
2022-09-23T12:26:25.322Z,54.28
2022-09-23T12:29:32.187Z,54.36
2022-09-23T12:32:35.408Z,54.05
2022-09-23T12:35:43.069Z,53.94
2022-09-23T12:38:53.310Z,53.89
2022-09-23T12:42:03.555Z,53.64
2022-09-23T12:45:35.135Z,53.61
2022-09-23T12:49:00.858Z,53.74
2022-09-23T12:52:16.500Z,53.75
2022-09-23T12:55:23.280Z,53.73
2022-09-23T12:58:43.003Z,53.75
2022-09-23T13:01:46.138Z,53.56
2022-09-23T13:05:26.503Z,53.38
2022-09-23T13:08:29.988Z,53.24
2022-09-23T13:11:33.385Z,53.52
2022-09-23T13:14:37.969Z,53.80
2022-09-23T13:17:41.299Z,53.81
2022-09-23T13:20:47.095Z,53.83
2022-09-23T13:24:21.080Z,53.98
2022-09-23T13:27:29.027Z,54.01
2022-09-23T13:30:31.995Z,54.18
2022-09-23T13:33:42.680Z,54.34
2022-09-23T13:36:47.991Z,54.45
2022-09-23T13:39:51.607Z,54.61
2022-09-23T13:43:00.791Z,54.69
2022-09-23T13:46:18.432Z,54.74
2022-09-23T13:49:28.491Z,54.78
2022-09-23T13:52:33.406Z,54.75
2022-09-23T13:55:39.273Z,54.64
2022-09-23T13:58:43.518Z,54.55
2022-09-23T14:01:47.210Z,54.33
2022-09-23T14:04:50.902Z,54.41
2022-09-23T14:07:56.471Z,54.60
2022-09-23T14:11:00.161Z,54.62
2022-09-23T14:14:07.803Z,54.33
2022-09-23T14:17:17.187Z,54.48
2022-09-23T14:20:27.237Z,54.63
2022-09-23T14:23:30.573Z,54.85
2022-09-23T14:26:33.710Z,54.84
2022-09-23T14:29:40.403Z,54.88
2022-09-23T14:32:43.983Z,55.01
2022-09-23T14:35:52.328Z,55.20
2022-09-23T14:39:11.429Z,55.25
2022-09-23T14:42:15.543Z,55.41
2022-09-23T14:45:25.797Z,55.58
2022-09-23T14:48:33.072Z,55.74
2022-09-23T14:51:43.873Z,56.38
2022-09-23T14:54:47.142Z,56.79
2022-09-23T14:58:02.112Z,57.10
2022-09-23T15:01:25.388Z,57.50
2022-09-23T15:04:31.082Z,57.71
2022-09-23T15:07:37.454Z,57.77
2022-09-23T15:10:41.260Z,58.06
2022-09-23T15:13:49.770Z,58.45
2022-09-23T15:16:53.393Z,58.65
2022-09-23T15:19:59.809Z,58.84
2022-09-23T15:23:03.197Z,58.96
2022-09-23T15:26:10.041Z,58.85
2022-09-23T15:29:12.981Z,58.54
2022-09-23T15:32:16.699Z,58.45
2022-09-23T15:35:22.785Z,58.35
2022-09-23T15:38:27.320Z,58.47
2022-09-23T15:41:33.037Z,58.59
2022-09-23T15:44:36.889Z,58.63
2022-09-23T15:47:39.918Z,58.69
2022-09-23T15:50:43.235Z,59.01
2022-09-23T15:53:47.904Z,59.20
2022-09-23T15:56:52.729Z,59.28
2022-09-23T16:00:00.110Z,59.43
2022-09-23T16:03:06.687Z,59.74
2022-09-23T16:06:13.544Z,59.71
2022-09-23T16:09:16.664Z,59.78
2022-09-23T16:12:19.659Z,59.99
2022-09-23T16:15:24.806Z,60.16
2022-09-23T16:18:27.799Z,60.10
2022-09-23T16:21:30.763Z,60.23
2022-09-23T16:24:33.718Z,60.40
2022-09-23T16:27:36.717Z,60.45
2022-09-23T16:30:39.694Z,60.51
2022-09-23T16:33:44.348Z,60.70
2022-09-23T16:36:47.795Z,60.68
2022-09-23T16:39:51.573Z,60.67
2022-09-23T16:42:55.950Z,60.76
2022-09-23T16:45:59.055Z,60.81
2022-09-23T16:49:02.603Z,60.98
2022-09-23T16:52:05.722Z,61.23
2022-09-23T16:55:10.414Z,61.25
2022-09-23T16:58:13.353Z,61.35
2022-09-23T17:01:46.134Z,61.44
2022-09-23T17:04:50.353Z,61.52
2022-09-23T17:07:53.424Z,61.35
2022-09-23T17:10:58.955Z,61.65
2022-09-23T17:14:02.157Z,61.90
2022-09-23T17:17:06.777Z,62.07
2022-09-23T17:20:09.722Z,61.91
2022-09-23T17:23:12.664Z,61.95
2022-09-23T17:26:15.590Z,62.09
2022-09-23T17:29:18.485Z,62.02
2022-09-23T17:32:21.421Z,62.13
2022-09-23T17:35:24.401Z,62.21
2022-09-23T17:38:29.311Z,62.39
2022-09-23T17:41:32.642Z,62.42
2022-09-23T17:44:36.354Z,62.58
2022-09-23T17:47:41.787Z,62.49
2022-09-23T17:50:57.085Z,62.70
2022-09-23T17:54:00.044Z,62.73
2022-09-23T17:57:03.074Z,62.87
2022-09-23T18:00:07.256Z,62.82
2022-09-23T18:03:15.093Z,62.62
2022-09-23T18:06:20.337Z,62.90
2022-09-23T18:09:23.823Z,62.89
2022-09-23T18:12:26.809Z,62.72
2022-09-23T18:15:29.972Z,62.97
2022-09-23T18:18:33.372Z,63.17
2022-09-23T18:21:38.764Z,63.08
2022-09-23T18:24:42.514Z,63.22
2022-09-23T18:27:45.445Z,63.25
2022-09-23T18:30:56.240Z,63.16
2022-09-23T18:33:59.463Z,63.24
2022-09-23T18:37:02.751Z,63.28
2022-09-23T18:40:09.304Z,63.18
2022-09-23T18:43:19.469Z,63.31
2022-09-23T18:46:32.525Z,63.00
2022-09-23T18:49:53.907Z,62.91
2022-09-23T18:53:00.384Z,63.14
2022-09-23T18:56:08.729Z,63.12
2022-09-23T18:59:16.876Z,63.14
2022-09-23T19:02:20.200Z,63.28
2022-09-23T19:05:23.712Z,63.32
2022-09-23T19:08:27.080Z,63.13
2022-09-23T19:11:32.289Z,63.21
2022-09-23T19:14:35.379Z,63.24
2022-09-23T19:17:38.389Z,63.41
2022-09-23T19:20:54.332Z,63.27
2022-09-23T19:24:03.980Z,63.15
2022-09-23T19:27:08.163Z,63.03
2022-09-23T19:30:13.913Z,63.23
2022-09-23T19:33:20.960Z,63.47
2022-09-23T19:36:27.008Z,63.31
2022-09-23T19:39:34.899Z,63.46
2022-09-23T19:42:38.491Z,63.46
2022-09-23T19:45:46.354Z,63.58
2022-09-23T19:48:52.608Z,63.52
2022-09-23T19:51:56.410Z,63.32
2022-09-23T19:55:01.071Z,63.38
2022-09-23T19:58:05.420Z,63.35
2022-09-23T20:01:10.473Z,63.43
2022-09-23T20:04:15.942Z,63.52
2022-09-23T20:07:19.423Z,63.35
2022-09-23T20:10:23.209Z,63.55
2022-09-23T20:13:34.036Z,63.50
2022-09-23T20:16:37.387Z,63.60
2022-09-23T20:19:45.151Z,63.47
2022-09-23T20:22:52.227Z,63.48
2022-09-23T20:26:18.150Z,63.49
2022-09-23T20:29:23.745Z,63.68
2022-09-23T20:32:30.212Z,63.51
2022-09-23T20:35:33.278Z,63.71
2022-09-23T20:38:37.235Z,63.55
2022-09-23T20:41:46.182Z,63.38
2022-09-23T20:44:49.190Z,63.56
2022-09-23T20:47:59.857Z,63.49
2022-09-23T20:51:04.998Z,63.56
2022-09-23T20:54:08.303Z,63.84
2022-09-23T20:57:15.287Z,63.55
2022-09-23T21:00:21.412Z,63.79
2022-09-23T21:03:26.648Z,63.39
2022-09-23T21:06:34.436Z,63.64
2022-09-23T21:09:38.432Z,63.66
2022-09-23T21:12:41.363Z,63.58
2022-09-23T21:15:47.449Z,63.55
2022-09-23T21:18:51.655Z,63.58
2022-09-23T21:22:02.467Z,63.74
2022-09-23T21:28:34.303Z,63.66
2022-09-23T21:31:47.538Z,63.59
2022-09-23T21:34:50.598Z,63.47
2022-09-23T21:37:53.633Z,63.27
2022-09-23T21:41:00.575Z,63.33
2022-09-23T21:44:06.880Z,63.48
2022-09-23T21:47:13.932Z,63.47
2022-09-23T21:50:17.300Z,63.47
2022-09-23T21:53:20.927Z,63.46
2022-09-23T21:56:31.415Z,63.49
2022-09-23T21:59:34.386Z,63.63
2022-09-23T22:02:41.146Z,63.56
2022-09-23T22:05:44.172Z,63.80
2022-09-23T22:08:50.248Z,63.59
2022-09-23T22:12:05.171Z,63.93
2022-09-23T22:15:09.921Z,63.85
2022-09-23T22:18:12.783Z,63.64
2022-09-23T22:21:15.757Z,63.88
2022-09-23T22:24:18.623Z,65.67
2022-09-23T22:27:21.557Z,65.28
2022-09-23T22:30:42.709Z,64.89
2022-09-23T22:33:45.732Z,64.78
2022-09-23T22:36:48.617Z,64.56
2022-09-23T22:39:51.537Z,64.78
2022-09-23T22:42:54.398Z,64.84
2022-09-23T22:45:57.369Z,65.06
2022-09-23T22:49:00.304Z,65.25
2022-09-23T22:52:07.084Z,65.37
2022-09-23T22:55:11.269Z,65.22
2022-09-23T22:58:31.304Z,65.54
2022-09-23T23:01:36.020Z,65.52
2022-09-23T23:04:38.904Z,65.49
2022-09-23T23:07:41.889Z,65.85
2022-09-23T23:10:44.820Z,65.82
2022-09-23T23:13:47.682Z,65.94
2022-09-23T23:16:50.766Z,65.88
2022-09-23T23:19:53.870Z,66.04
2022-09-23T23:22:56.905Z,66.07
2022-09-23T23:26:09.691Z,66.05
2022-09-23T23:29:14.806Z,66.14
2022-09-23T23:32:17.679Z,66.20
2022-09-23T23:35:20.865Z,66.25
2022-09-23T23:38:23.847Z,66.42
2022-09-23T23:41:27.899Z,66.30
2022-09-23T23:44:34.463Z,66.41
2022-09-23T23:47:37.509Z,66.54
2022-09-23T23:50:40.455Z,66.50
2022-09-23T23:53:43.753Z,66.40
2022-09-23T23:56:46.739Z,66.52
2022-09-23T23:59:50.180Z,66.45
